Aérodrome :
LOGIN :

S'inscrire | Disclaimer

   EN    FR    IT 

 










Légende :    VFR   VFR Marginal   IFR   IFR Intensif   IFR Très Intensif
Visi : 
Plafond : 
>= 8 km
>= 3000ft
5 à 8 km
1000 à 3000 ft
1500m à 5 km
500 à 1000 ft
800 à 1500m
200 à 500 ft
< 800m
< 200 ft
Symboles :   Orages  Brouillard  Fortes neiges  Fortes précipitations  Vent > 20 kt
SIGMETs :   Divers  Orages  Givrage  Turbulence  Onde Orograph.  Cendres Volcan.







- Altitude de l'aérodrome : 1906 ft
- Code IATA : INN


LOWI - Innsbruck

DERNIER METAR :
  • 210350Z VRB01KT 9999 -RA FEW003 BKN016 OVC060 09/08 Q1008 TEMPO RA BKN014

METARs EXPIRÉS :
  • 210320Z AUTO 07003KT 9999 -RA FEW011 BKN013 09/08 Q1008
  • 210250Z AUTO 05003KT 030V110 9999 -RA SCT011 BKN013 09/08 Q1008
  • 210220Z AUTO VRB02KT 9999 -RA FEW009 BKN012 09/08 Q1008
  • 210150Z AUTO VRB02KT 9999 -RA FEW008 SCT013 BKN017 09/08 Q1008
  • 210120Z AUTO VRB02KT 9999 -RA FEW007 BKN013 09/08 Q1007

TAF AMD TAF LOWI
Valide du 21 à 03h jusqu'au 22 à 00h UTC


210330Z 2103/2124 08004KT 9999 -RA SCT010 SCT020 BKN040 TX12/2112Z TN09/2104Z
TEMPO 2103/2108 8000 RA SCT005 BKN010
TEMPO 2108/2118 27008KT RA SCT030 BKN050
Pas de NOTAMs connus pour ce terrain.



MET'MAP, la Météo Aéronautique d'un coup d'oeil ! - Copyright ORBIFLY Décembre 2007 - Disclaimer

ORBIFLY MET'MAP TEAM :

Programmation & Développement : Alexandra Zaïnal
Conception & Développement : Baudouin d'Aumeries
Co-Programmation & Développement : Marc-Olivier Méhu
Soutien technique & logistique : Manuel Goepfert

Contact : metmap@orbifly.com




SOURCES & CREDITS :

   NOAA